sensor_id;sensor_type;location;lat;lon;timestamp;temperature;humidity
15359;DHT22;7779;49.596;11.070;2022-09-01T00:01:45;18.30;63.20
15359;DHT22;7779;49.596;11.070;2022-09-01T00:04:15;18.30;62.90
15359;DHT22;7779;49.596;11.070;2022-09-01T00:06:43;18.30;62.90
15359;DHT22;7779;49.596;11.070;2022-09-01T00:09:13;18.30;63.00
15359;DHT22;7779;49.596;11.070;2022-09-01T00:11:43;18.30;63.10
15359;DHT22;7779;49.596;11.070;2022-09-01T00:14:11;18.30;63.10
15359;DHT22;7779;49.596;11.070;2022-09-01T00:16:38;18.30;63.10
15359;DHT22;7779;49.596;11.070;2022-09-01T00:19:04;18.30;63.10
15359;DHT22;7779;49.596;11.070;2022-09-01T00:21:36;18.30;63.10
15359;DHT22;7779;49.596;11.070;2022-09-01T00:24:05;18.30;63.20
15359;DHT22;7779;49.596;11.070;2022-09-01T00:26:32;18.30;63.10
15359;DHT22;7779;49.596;11.070;2022-09-01T00:28:57;18.30;63.10
15359;DHT22;7779;49.596;11.070;2022-09-01T00:31:25;18.30;63.20
15359;DHT22;7779;49.596;11.070;2022-09-01T00:33:51;18.30;63.20
15359;DHT22;7779;49.596;11.070;2022-09-01T00:36:19;18.30;63.20
15359;DHT22;7779;49.596;11.070;2022-09-01T00:38:46;18.30;63.30
15359;DHT22;7779;49.596;11.070;2022-09-01T00:41:13;18.30;63.40
15359;DHT22;7779;49.596;11.070;2022-09-01T00:46:30;18.30;63.60
15359;DHT22;7779;49.596;11.070;2022-09-01T00:49:10;18.30;63.70
15359;DHT22;7779;49.596;11.070;2022-09-01T00:51:40;18.20;64.10
15359;DHT22;7779;49.596;11.070;2022-09-01T00:54:14;18.20;63.50
15359;DHT22;7779;49.596;11.070;2022-09-01T00:56:47;18.20;63.80
15359;DHT22;7779;49.596;11.070;2022-09-01T00:59:15;18.20;63.50
15359;DHT22;7779;49.596;11.070;2022-09-01T01:01:43;18.10;62.90
15359;DHT22;7779;49.596;11.070;2022-09-01T01:04:09;18.10;63.40
15359;DHT22;7779;49.596;11.070;2022-09-01T01:06:42;18.10;64.10
15359;DHT22;7779;49.596;11.070;2022-09-01T01:09:17;18.10;63.70
15359;DHT22;7779;49.596;11.070;2022-09-01T01:11:47;18.00;63.60
15359;DHT22;7779;49.596;11.070;2022-09-01T01:14:15;18.00;63.50
15359;DHT22;7779;49.596;11.070;2022-09-01T01:16:44;17.90;63.60
15359;DHT22;7779;49.596;11.070;2022-09-01T01:22:52;17.90;65.00
15359;DHT22;7779;49.596;11.070;2022-09-01T01:25:45;17.80;64.50
15359;DHT22;7779;49.596;11.070;2022-09-01T01:28:20;17.80;65.00
15359;DHT22;7779;49.596;11.070;2022-09-01T01:31:15;17.70;64.30
15359;DHT22;7779;49.596;11.070;2022-09-01T01:33:52;17.70;65.40
15359;DHT22;7779;49.596;11.070;2022-09-01T01:36:29;17.70;64.20
15359;DHT22;7779;49.596;11.070;2022-09-01T01:39:10;17.70;65.00
15359;DHT22;7779;49.596;11.070;2022-09-01T01:41:41;17.70;65.00
15359;DHT22;7779;49.596;11.070;2022-09-01T01:44:13;17.70;64.60
15359;DHT22;7779;49.596;11.070;2022-09-01T01:46:44;17.60;64.50
15359;DHT22;7779;49.596;11.070;2022-09-01T01:49:13;17.60;64.70
15359;DHT22;7779;49.596;11.070;2022-09-01T01:51:50;17.60;64.70
15359;DHT22;7779;49.596;11.070;2022-09-01T01:54:21;17.60;65.10
15359;DHT22;7779;49.596;11.070;2022-09-01T01:56:49;17.60;64.80
15359;DHT22;7779;49.596;11.070;2022-09-01T01:59:15;17.60;65.70
15359;DHT22;7779;49.596;11.070;2022-09-01T02:01:44;17.60;64.90
15359;DHT22;7779;49.596;11.070;2022-09-01T02:04:14;17.60;64.90
15359;DHT22;7779;49.596;11.070;2022-09-01T02:06:43;17.60;64.90
15359;DHT22;7779;49.596;11.070;2022-09-01T02:09:16;17.50;64.90
15359;DHT22;7779;49.596;11.070;2022-09-01T02:11:44;17.50;64.90
15359;DHT22;7779;49.596;11.070;2022-09-01T02:14:11;17.50;64.70
15359;DHT22;7779;49.596;11.070;2022-09-01T02:16:39;17.40;64.60
15359;DHT22;7779;49.596;11.070;2022-09-01T02:19:07;17.40;64.50
15359;DHT22;7779;49.596;11.070;2022-09-01T02:21:37;17.40;64.60
15359;DHT22;7779;49.596;11.070;2022-09-01T02:24:09;17.30;64.50
15359;DHT22;7779;49.596;11.070;2022-09-01T02:26:42;17.30;64.60
15359;DHT22;7779;49.596;11.070;2022-09-01T02:29:15;17.20;65.00
15359;DHT22;7779;49.596;11.070;2022-09-01T02:31:49;17.20;64.90
15359;DHT22;7779;49.596;11.070;2022-09-01T02:34:18;17.20;65.00
15359;DHT22;7779;49.596;11.070;2022-09-01T02:36:51;17.10;64.90
15359;DHT22;7779;49.596;11.070;2022-09-01T02:39:27;17.10;66.10
15359;DHT22;7779;49.596;11.070;2022-09-01T02:41:54;17.10;65.70
15359;DHT22;7779;49.596;11.070;2022-09-01T02:44:27;17.00;65.20
15359;DHT22;7779;49.596;11.070;2022-09-01T02:46:56;17.00;66.00
15359;DHT22;7779;49.596;11.070;2022-09-01T02:49:24;16.90;65.40
15359;DHT22;7779;49.596;11.070;2022-09-01T02:51:54;16.90;65.50
15359;DHT22;7779;49.596;11.070;2022-09-01T02:54:24;16.90;65.60
15359;DHT22;7779;49.596;11.070;2022-09-01T02:56:52;16.90;65.60
15359;DHT22;7779;49.596;11.070;2022-09-01T02:59:23;16.80;65.70
15359;DHT22;7779;49.596;11.070;2022-09-01T03:01:52;16.80;65.20
15359;DHT22;7779;49.596;11.070;2022-09-01T03:04:20;16.80;65.80
15359;DHT22;7779;49.596;11.070;2022-09-01T03:06:47;16.80;65.80
15359;DHT22;7779;49.596;11.070;2022-09-01T03:09:17;16.70;65.80
15359;DHT22;7779;49.596;11.070;2022-09-01T03:11:47;16.70;65.90
15359;DHT22;7779;49.596;11.070;2022-09-01T03:14:15;16.70;66.10
15359;DHT22;7779;49.596;11.070;2022-09-01T03:16:41;16.60;65.90
15359;DHT22;7779;49.596;11.070;2022-09-01T03:19:08;16.60;65.80
15359;DHT22;7779;49.596;11.070;2022-09-01T03:21:39;16.50;65.80
15359;DHT22;7779;49.596;11.070;2022-09-01T03:24:09;16.50;65.90
15359;DHT22;7779;49.596;11.070;2022-09-01T03:26:40;16.40;65.80
15359;DHT22;7779;49.596;11.070;2022-09-01T03:29:07;16.40;65.80
15359;DHT22;7779;49.596;11.070;2022-09-01T03:31:36;16.30;65.80
15359;DHT22;7779;49.596;11.070;2022-09-01T03:34:03;16.30;65.90
15359;DHT22;7779;49.596;11.070;2022-09-01T03:36:34;16.20;65.80
15359;DHT22;7779;49.596;11.070;2022-09-01T03:39:00;16.30;66.00
15359;DHT22;7779;49.596;11.070;2022-09-01T03:41:29;16.10;65.90
15359;DHT22;7779;49.596;11.070;2022-09-01T03:43:56;16.00;65.90
15359;DHT22;7779;49.596;11.070;2022-09-01T03:46:28;16.00;66.00
15359;DHT22;7779;49.596;11.070;2022-09-01T03:48:57;15.90;66.10
15359;DHT22;7779;49.596;11.070;2022-09-01T03:51:28;15.90;66.40
15359;DHT22;7779;49.596;11.070;2022-09-01T03:53:56;15.80;66.30
15359;DHT22;7779;49.596;11.070;2022-09-01T03:56:25;15.80;66.40
15359;DHT22;7779;49.596;11.070;2022-09-01T03:58:54;15.70;66.40
15359;DHT22;7779;49.596;11.070;2022-09-01T04:01:27;15.70;66.60
15359;DHT22;7779;49.596;11.070;2022-09-01T04:03:57;15.60;66.50
15359;DHT22;7779;49.596;11.070;2022-09-01T04:06:26;15.60;66.50
15359;DHT22;7779;49.596;11.070;2022-09-01T04:08:52;15.60;66.60
15359;DHT22;7779;49.596;11.070;2022-09-01T04:11:28;15.50;66.50
15359;DHT22;7779;49.596;11.070;2022-09-01T04:13:54;15.50;66.50
15359;DHT22;7779;49.596;11.070;2022-09-01T04:16:25;15.40;66.50
15359;DHT22;7779;49.596;11.070;2022-09-01T04:19:13;15.40;66.90
15359;DHT22;7779;49.596;11.070;2022-09-01T04:21:46;15.30;66.40
15359;DHT22;7779;49.596;11.070;2022-09-01T04:24:15;15.30;66.50
15359;DHT22;7779;49.596;11.070;2022-09-01T04:26:44;15.20;66.40
15359;DHT22;7779;49.596;11.070;2022-09-01T04:29:14;15.10;67.60
15359;DHT22;7779;49.596;11.070;2022-09-01T04:31:43;15.10;66.50
15359;DHT22;7779;49.596;11.070;2022-09-01T04:34:13;15.10;66.60
15359;DHT22;7779;49.596;11.070;2022-09-01T04:36:43;15.00;66.60
15359;DHT22;7779;49.596;11.070;2022-09-01T04:39:10;14.90;67.70
15359;DHT22;7779;49.596;11.070;2022-09-01T04:41:41;14.90;66.70
15359;DHT22;7779;49.596;11.070;2022-09-01T04:44:11;14.80;66.80
15359;DHT22;7779;49.596;11.070;2022-09-01T04:46:41;14.80;66.80
15359;DHT22;7779;49.596;11.070;2022-09-01T04:49:12;14.70;68.20
15359;DHT22;7779;49.596;11.070;2022-09-01T04:51:47;14.70;67.10
15359;DHT22;7779;49.596;11.070;2022-09-01T04:54:15;14.70;67.20
15359;DHT22;7779;49.596;11.070;2022-09-01T04:56:46;14.70;67.40
15359;DHT22;7779;49.596;11.070;2022-09-01T04:59:19;14.60;68.90
15359;DHT22;7779;49.596;11.070;2022-09-01T05:01:54;14.60;67.70
15359;DHT22;7779;49.596;11.070;2022-09-01T05:04:25;14.60;67.70
15359;DHT22;7779;49.596;11.070;2022-09-01T05:06:57;14.60;68.00
15359;DHT22;7779;49.596;11.070;2022-09-01T05:09:33;14.60;69.20
15359;DHT22;7779;49.596;11.070;2022-09-01T05:12:33;14.60;68.10
15359;DHT22;7779;49.596;11.070;2022-09-01T05:15:00;14.60;68.10
15359;DHT22;7779;49.596;11.070;2022-09-01T05:17:33;14.60;68.30
15359;DHT22;7779;49.596;11.070;2022-09-01T05:20:03;14.60;68.40
15359;DHT22;7779;49.596;11.070;2022-09-01T05:22:30;14.70;68.50
15359;DHT22;7779;49.596;11.070;2022-09-01T05:25:02;14.70;68.50
15359;DHT22;7779;49.596;11.070;2022-09-01T05:27:41;14.70;68.60
15359;DHT22;7779;49.596;11.070;2022-09-01T05:30:15;14.70;68.30
15359;DHT22;7779;49.596;11.070;2022-09-01T05:32:42;14.70;68.70
15359;DHT22;7779;49.596;11.070;2022-09-01T05:35:12;14.80;68.70
15359;DHT22;7779;49.596;11.070;2022-09-01T05:37:37;14.80;68.80
15359;DHT22;7779;49.596;11.070;2022-09-01T05:40:08;14.90;68.60
15359;DHT22;7779;49.596;11.070;2022-09-01T05:42:42;14.90;69.40
15359;DHT22;7779;49.596;11.070;2022-09-01T05:45:09;15.00;69.20
15359;DHT22;7779;49.596;11.070;2022-09-01T05:47:38;15.00;69.20
15359;DHT22;7779;49.596;11.070;2022-09-01T05:50:06;15.10;69.00
15359;DHT22;7779;49.596;11.070;2022-09-01T05:52:38;15.20;69.50
15359;DHT22;7779;49.596;11.070;2022-09-01T05:55:05;15.30;69.60
15359;DHT22;7779;49.596;11.070;2022-09-01T05:57:35;15.40;69.80
15359;DHT22;7779;49.596;11.070;2022-09-01T06:00:06;15.50;70.00
15359;DHT22;7779;49.596;11.070;2022-09-01T06:02:40;15.60;70.30
15359;DHT22;7779;49.596;11.070;2022-09-01T06:05:09;15.80;70.50
15359;DHT22;7779;49.596;11.070;2022-09-01T06:07:36;16.00;70.60
15359;DHT22;7779;49.596;11.070;2022-09-01T06:10:05;16.10;70.60
15359;DHT22;7779;49.596;11.070;2022-09-01T06:12:31;16.30;70.50
15359;DHT22;7779;49.596;11.070;2022-09-01T06:14:58;16.50;70.50
15359;DHT22;7779;49.596;11.070;2022-09-01T06:17:26;16.70;70.50
15359;DHT22;7779;49.596;11.070;2022-09-01T06:19:57;16.80;70.40
15359;DHT22;7779;49.596;11.070;2022-09-01T06:22:25;17.00;70.30
15359;DHT22;7779;49.596;11.070;2022-09-01T06:24:53;17.20;70.20
15359;DHT22;7779;49.596;11.070;2022-09-01T06:27:20;17.40;70.10
15359;DHT22;7779;49.596;11.070;2022-09-01T06:29:47;17.60;69.90
15359;DHT22;7779;49.596;11.070;2022-09-01T06:32:16;17.80;69.70
15359;DHT22;7779;49.596;11.070;2022-09-01T06:34:43;18.00;69.50
15359;DHT22;7779;49.596;11.070;2022-09-01T06:37:16;18.10;69.10
15359;DHT22;7779;49.596;11.070;2022-09-01T06:39:48;18.30;68.80
15359;DHT22;7779;49.596;11.070;2022-09-01T06:42:14;18.50;68.40
15359;DHT22;7779;49.596;11.070;2022-09-01T06:44:50;18.60;68.00
15359;DHT22;7779;49.596;11.070;2022-09-01T06:47:17;18.80;67.60
15359;DHT22;7779;49.596;11.070;2022-09-01T06:49:43;18.90;67.30
15359;DHT22;7779;49.596;11.070;2022-09-01T06:52:16;19.10;67.00
15359;DHT22;7779;49.596;11.070;2022-09-01T06:54:42;19.20;66.80
15359;DHT22;7779;49.596;11.070;2022-09-01T06:57:09;19.40;66.70
15359;DHT22;7779;49.596;11.070;2022-09-01T06:59:34;19.50;66.30
15359;DHT22;7779;49.596;11.070;2022-09-01T07:02:02;19.60;65.90
15359;DHT22;7779;49.596;11.070;2022-09-01T07:04:54;19.70;65.40
15359;DHT22;7779;49.596;11.070;2022-09-01T07:07:20;19.80;65.00
15359;DHT22;7779;49.596;11.070;2022-09-01T07:10:05;19.90;64.70
15359;DHT22;7779;49.596;11.070;2022-09-01T07:12:40;20.00;64.60
15359;DHT22;7779;49.596;11.070;2022-09-01T07:15:11;20.10;64.40
15359;DHT22;7779;49.596;11.070;2022-09-01T07:17:44;20.10;64.10
15359;DHT22;7779;49.596;11.070;2022-09-01T07:20:13;20.20;64.00
15359;DHT22;7779;49.596;11.070;2022-09-01T07:22:41;20.30;63.90
15359;DHT22;7779;49.596;11.070;2022-09-01T07:25:07;20.40;63.60
15359;DHT22;7779;49.596;11.070;2022-09-01T07:27:57;20.40;63.30
15359;DHT22;7779;49.596;11.070;2022-09-01T07:30:25;20.50;63.20
15359;DHT22;7779;49.596;11.070;2022-09-01T07:32:51;20.50;62.90
15359;DHT22;7779;49.596;11.070;2022-09-01T07:35:20;20.60;62.80
15359;DHT22;7779;49.596;11.070;2022-09-01T07:37:48;20.60;62.40
15359;DHT22;7779;49.596;11.070;2022-09-01T07:40:17;20.70;62.40
15359;DHT22;7779;49.596;11.070;2022-09-01T07:42:59;20.70;62.00
15359;DHT22;7779;49.596;11.070;2022-09-01T07:45:45;20.70;61.90
15359;DHT22;7779;49.596;11.070;2022-09-01T07:48:18;20.80;61.80
15359;DHT22;7779;49.596;11.070;2022-09-01T07:50:51;20.80;61.10
15359;DHT22;7779;49.596;11.070;2022-09-01T07:53:21;20.90;61.40
15359;DHT22;7779;49.596;11.070;2022-09-01T07:55:52;20.90;61.20
15359;DHT22;7779;49.596;11.070;2022-09-01T07:58:22;21.00;61.20
15359;DHT22;7779;49.596;11.070;2022-09-01T08:00:55;21.00;61.00
15359;DHT22;7779;49.596;11.070;2022-09-01T08:03:24;21.10;60.90
15359;DHT22;7779;49.596;11.070;2022-09-01T08:05:50;21.10;60.50
15359;DHT22;7779;49.596;11.070;2022-09-01T08:08:23;21.10;60.50
15359;DHT22;7779;49.596;11.070;2022-09-01T08:10:49;21.20;60.40
15359;DHT22;7779;49.596;11.070;2022-09-01T08:13:17;21.30;60.10
15359;DHT22;7779;49.596;11.070;2022-09-01T08:15:44;21.30;59.90
15359;DHT22;7779;49.596;11.070;2022-09-01T08:18:11;21.30;59.80
15359;DHT22;7779;49.596;11.070;2022-09-01T08:20:39;21.40;59.80
15359;DHT22;7779;49.596;11.070;2022-09-01T08:23:28;21.40;59.60
15359;DHT22;7779;49.596;11.070;2022-09-01T08:25:54;21.40;59.40
15359;DHT22;7779;49.596;11.070;2022-09-01T08:28:20;21.40;59.30
15359;DHT22;7779;49.596;11.070;2022-09-01T08:30:46;21.50;59.20
15359;DHT22;7779;49.596;11.070;2022-09-01T08:33:16;21.50;59.20
15359;DHT22;7779;49.596;11.070;2022-09-01T08:35:46;21.50;59.00
15359;DHT22;7779;49.596;11.070;2022-09-01T08:38:14;21.60;59.10
15359;DHT22;7779;49.596;11.070;2022-09-01T08:40:48;21.60;59.00
15359;DHT22;7779;49.596;11.070;2022-09-01T08:43:51;21.70;59.00
15359;DHT22;7779;49.596;11.070;2022-09-01T08:46:31;21.80;58.30
15359;DHT22;7779;49.596;11.070;2022-09-01T08:49:07;21.90;58.50
15359;DHT22;7779;49.596;11.070;2022-09-01T08:55:18;22.00;57.90
15359;DHT22;7779;49.596;11.070;2022-09-01T08:57:54;22.10;58.10
15359;DHT22;7779;49.596;11.070;2022-09-01T09:00:30;22.20;58.30
15359;DHT22;7779;49.596;11.070;2022-09-01T09:06:16;22.40;58.30
15359;DHT22;7779;49.596;11.070;2022-09-01T09:09:04;22.50;58.00
15359;DHT22;7779;49.596;11.070;2022-09-01T09:12:00;22.60;57.10
15359;DHT22;7779;49.596;11.070;2022-09-01T09:17:53;22.80;56.90
15359;DHT22;7779;49.596;11.070;2022-09-01T09:20:28;22.90;57.10
15359;DHT22;7779;49.596;11.070;2022-09-01T09:22:54;23.00;57.40
15359;DHT22;7779;49.596;11.070;2022-09-01T09:25:21;23.10;57.20
15359;DHT22;7779;49.596;11.070;2022-09-01T09:27:50;23.20;57.00
15359;DHT22;7779;49.596;11.070;2022-09-01T09:30:26;23.30;56.90
15359;DHT22;7779;49.596;11.070;2022-09-01T09:33:05;23.40;56.50
15359;DHT22;7779;49.596;11.070;2022-09-01T09:35:43;23.60;56.50
15359;DHT22;7779;49.596;11.070;2022-09-01T09:41:18;23.80;56.20
15359;DHT22;7779;49.596;11.070;2022-09-01T09:44:04;24.00;54.50
15359;DHT22;7779;49.596;11.070;2022-09-01T09:46:39;24.10;55.00
15359;DHT22;7779;49.596;11.070;2022-09-01T09:49:26;24.30;55.40
15359;DHT22;7779;49.596;11.070;2022-09-01T09:54:40;24.50;53.30
15359;DHT22;7779;49.596;11.070;2022-09-01T09:57:22;24.70;54.60
15359;DHT22;7779;49.596;11.070;2022-09-01T10:10:53;25.20;52.80
15359;DHT22;7779;49.596;11.070;2022-09-01T10:13:22;25.30;52.80
15359;DHT22;7779;49.596;11.070;2022-09-01T10:15:51;25.40;52.60
15359;DHT22;7779;49.596;11.070;2022-09-01T10:18:26;25.50;52.40
15359;DHT22;7779;49.596;11.070;2022-09-01T10:21:01;25.60;51.70
15359;DHT22;7779;49.596;11.070;2022-09-01T10:23:34;25.70;52.20
15359;DHT22;7779;49.596;11.070;2022-09-01T10:26:10;25.90;52.20
15359;DHT22;7779;49.596;11.070;2022-09-01T10:29:46;26.00;50.90
15359;DHT22;7779;49.596;11.070;2022-09-01T10:31:53;26.10;49.50
15359;DHT22;7779;49.596;11.070;2022-09-01T10:34:20;26.20;50.60
15359;DHT22;7779;49.596;11.070;2022-09-01T10:36:49;26.20;50.40
15359;DHT22;7779;49.596;11.070;2022-09-01T10:39:17;26.30;50.30
15359;DHT22;7779;49.596;11.070;2022-09-01T10:44:33;26.30;49.60
15359;DHT22;7779;49.596;11.070;2022-09-01T10:47:38;26.40;48.10
15359;DHT22;7779;49.596;11.070;2022-09-01T10:50:31;26.40;47.90
15359;DHT22;7779;49.596;11.070;2022-09-01T10:53:03;26.40;47.60
15359;DHT22;7779;49.596;11.070;2022-09-01T10:55:40;26.50;48.30
15359;DHT22;7779;49.596;11.070;2022-09-01T10:58:19;26.50;48.20
15359;DHT22;7779;49.596;11.070;2022-09-01T11:00:51;26.50;48.30
15359;DHT22;7779;49.596;11.070;2022-09-01T11:06:02;26.40;48.20
15359;DHT22;7779;49.596;11.070;2022-09-01T11:18:55;26.50;47.00
15359;DHT22;7779;49.596;11.070;2022-09-01T11:27:08;26.50;47.20
15359;DHT22;7779;49.596;11.070;2022-09-01T11:29:57;26.50;47.20
15359;DHT22;7779;49.596;11.070;2022-09-01T11:32:33;26.40;45.90
15359;DHT22;7779;49.596;11.070;2022-09-01T11:35:24;26.30;46.50
15359;DHT22;7779;49.596;11.070;2022-09-01T11:37:56;26.30;45.80
15359;DHT22;7779;49.596;11.070;2022-09-01T11:40:30;26.20;46.80
15359;DHT22;7779;49.596;11.070;2022-09-01T11:42:59;26.10;46.80
15359;DHT22;7779;49.596;11.070;2022-09-01T11:45:31;26.10;47.10
15359;DHT22;7779;49.596;11.070;2022-09-01T11:48:02;26.00;47.20
15359;DHT22;7779;49.596;11.070;2022-09-01T11:50:35;26.00;47.10
15359;DHT22;7779;49.596;11.070;2022-09-01T11:53:12;26.00;47.20
15359;DHT22;7779;49.596;11.070;2022-09-01T11:55:45;26.00;46.70
15359;DHT22;7779;49.596;11.070;2022-09-01T12:00:52;26.00;46.70
15359;DHT22;7779;49.596;11.070;2022-09-01T12:03:25;26.00;47.40
15359;DHT22;7779;49.596;11.070;2022-09-01T12:06:02;26.10;47.00
15359;DHT22;7779;49.596;11.070;2022-09-01T12:08:36;26.10;46.70
15359;DHT22;7779;49.596;11.070;2022-09-01T12:11:05;26.10;46.90
15359;DHT22;7779;49.596;11.070;2022-09-01T12:13:34;26.20;47.20
15359;DHT22;7779;49.596;11.070;2022-09-01T12:16:03;26.20;47.00
15359;DHT22;7779;49.596;11.070;2022-09-01T12:18:43;26.20;47.00
15359;DHT22;7779;49.596;11.070;2022-09-01T12:21:23;26.20;46.50
15359;DHT22;7779;49.596;11.070;2022-09-01T12:24:27;26.20;46.00
15359;DHT22;7779;49.596;11.070;2022-09-01T12:26:55;26.20;45.70
15359;DHT22;7779;49.596;11.070;2022-09-01T12:29:24;26.20;46.70
15359;DHT22;7779;49.596;11.070;2022-09-01T12:31:52;26.30;46.60
15359;DHT22;7779;49.596;11.070;2022-09-01T12:34:37;26.30;46.50
15359;DHT22;7779;49.596;11.070;2022-09-01T12:39:43;26.30;45.60
15359;DHT22;7779;49.596;11.070;2022-09-01T12:42:29;26.30;46.30
15359;DHT22;7779;49.596;11.070;2022-09-01T12:45:07;26.30;45.50
15359;DHT22;7779;49.596;11.070;2022-09-01T12:52:53;26.40;46.30
15359;DHT22;7779;49.596;11.070;2022-09-01T12:55:22;26.40;45.80
15359;DHT22;7779;49.596;11.070;2022-09-01T12:57:53;26.40;46.20
15359;DHT22;7779;49.596;11.070;2022-09-01T13:00:25;26.40;46.20
15359;DHT22;7779;49.596;11.070;2022-09-01T13:05:40;26.40;45.30
15359;DHT22;7779;49.596;11.070;2022-09-01T13:08:15;26.40;45.50
15359;DHT22;7779;49.596;11.070;2022-09-01T13:11:00;26.40;45.50
15359;DHT22;7779;49.596;11.070;2022-09-01T13:13:29;26.40;45.00
15359;DHT22;7779;49.596;11.070;2022-09-01T13:15:57;26.30;45.40
15359;DHT22;7779;49.596;11.070;2022-09-01T13:18:27;26.30;45.20
15359;DHT22;7779;49.596;11.070;2022-09-01T13:20:55;26.20;45.10
15359;DHT22;7779;49.596;11.070;2022-09-01T13:23:22;26.20;45.00
15359;DHT22;7779;49.596;11.070;2022-09-01T13:25:49;26.10;44.80
15359;DHT22;7779;49.596;11.070;2022-09-01T13:28:17;26.00;44.60
15359;DHT22;7779;49.596;11.070;2022-09-01T13:30:49;25.80;44.50
15359;DHT22;7779;49.596;11.070;2022-09-01T13:33:21;25.70;44.50
15359;DHT22;7779;49.596;11.070;2022-09-01T13:35:48;25.60;44.70
15359;DHT22;7779;49.596;11.070;2022-09-01T13:38:15;25.50;44.90
15359;DHT22;7779;49.596;11.070;2022-09-01T13:40:42;25.40;45.10
15359;DHT22;7779;49.596;11.070;2022-09-01T13:43:11;25.30;45.20
15359;DHT22;7779;49.596;11.070;2022-09-01T13:45:38;25.30;45.40
15359;DHT22;7779;49.596;11.070;2022-09-01T13:48:07;25.20;45.40
15359;DHT22;7779;49.596;11.070;2022-09-01T13:50:33;25.20;45.30
15359;DHT22;7779;49.596;11.070;2022-09-01T13:53:01;25.20;45.40
15359;DHT22;7779;49.596;11.070;2022-09-01T13:55:29;25.10;45.30
15359;DHT22;7779;49.596;11.070;2022-09-01T13:57:57;25.10;45.20
15359;DHT22;7779;49.596;11.070;2022-09-01T14:00:27;25.10;45.40
15359;DHT22;7779;49.596;11.070;2022-09-01T14:03:03;25.10;45.50
15359;DHT22;7779;49.596;11.070;2022-09-01T14:05:35;25.20;45.50
15359;DHT22;7779;49.596;11.070;2022-09-01T14:08:04;25.20;45.40
15359;DHT22;7779;49.596;11.070;2022-09-01T14:10:31;25.30;45.50
15359;DHT22;7779;49.596;11.070;2022-09-01T14:13:01;25.30;45.40
15359;DHT22;7779;49.596;11.070;2022-09-01T14:15:28;25.40;45.40
15359;DHT22;7779;49.596;11.070;2022-09-01T14:17:55;25.50;45.30
15359;DHT22;7779;49.596;11.070;2022-09-01T14:20:24;25.60;45.20
15359;DHT22;7779;49.596;11.070;2022-09-01T14:22:53;25.70;45.00
15359;DHT22;7779;49.596;11.070;2022-09-01T14:25:20;25.70;44.80
15359;DHT22;7779;49.596;11.070;2022-09-01T14:27:47;25.80;44.60
15359;DHT22;7779;49.596;11.070;2022-09-01T14:30:20;25.80;44.40
15359;DHT22;7779;49.596;11.070;2022-09-01T14:32:48;25.80;43.80
15359;DHT22;7779;49.596;11.070;2022-09-01T14:35:17;25.70;44.00
15359;DHT22;7779;49.596;11.070;2022-09-01T14:37:45;25.70;44.00
15359;DHT22;7779;49.596;11.070;2022-09-01T14:40:14;25.60;44.00
15359;DHT22;7779;49.596;11.070;2022-09-01T14:42:41;25.60;43.90
15359;DHT22;7779;49.596;11.070;2022-09-01T14:45:22;25.50;43.80
15359;DHT22;7779;49.596;11.070;2022-09-01T14:47:52;25.40;43.60
15359;DHT22;7779;49.596;11.070;2022-09-01T14:50:21;25.30;43.80
15359;DHT22;7779;49.596;11.070;2022-09-01T14:52:52;25.20;43.90
15359;DHT22;7779;49.596;11.070;2022-09-01T14:55:21;25.10;43.90
15359;DHT22;7779;49.596;11.070;2022-09-01T14:57:49;25.00;44.10
15359;DHT22;7779;49.596;11.070;2022-09-01T15:00:17;24.90;44.20
15359;DHT22;7779;49.596;11.070;2022-09-01T15:02:44;24.80;44.20
15359;DHT22;7779;49.596;11.070;2022-09-01T15:05:12;24.80;44.40
15359;DHT22;7779;49.596;11.070;2022-09-01T15:07:38;24.70;44.40
15359;DHT22;7779;49.596;11.070;2022-09-01T15:10:07;24.60;44.40
15359;DHT22;7779;49.596;11.070;2022-09-01T15:12:34;24.60;44.60
15359;DHT22;7779;49.596;11.070;2022-09-01T15:15:01;24.60;44.60
15359;DHT22;7779;49.596;11.070;2022-09-01T15:17:27;24.50;44.50
15359;DHT22;7779;49.596;11.070;2022-09-01T15:19:54;24.50;44.50
15359;DHT22;7779;49.596;11.070;2022-09-01T15:22:20;24.50;44.50
15359;DHT22;7779;49.596;11.070;2022-09-01T15:24:46;24.50;44.50
15359;DHT22;7779;49.596;11.070;2022-09-01T15:27:12;24.50;44.60
15359;DHT22;7779;49.596;11.070;2022-09-01T15:29:38;24.50;44.60
15359;DHT22;7779;49.596;11.070;2022-09-01T15:32:14;24.50;44.60
15359;DHT22;7779;49.596;11.070;2022-09-01T15:34:41;24.50;44.40
15359;DHT22;7779;49.596;11.070;2022-09-01T15:37:06;24.40;44.40
15359;DHT22;7779;49.596;11.070;2022-09-01T15:39:33;24.40;44.20
15359;DHT22;7779;49.596;11.070;2022-09-01T15:41:59;24.40;44.20
15359;DHT22;7779;49.596;11.070;2022-09-01T15:44:26;24.40;44.10
15359;DHT22;7779;49.596;11.070;2022-09-01T15:46:52;24.40;44.00
15359;DHT22;7779;49.596;11.070;2022-09-01T15:49:18;24.40;44.00
15359;DHT22;7779;49.596;11.070;2022-09-01T15:51:44;24.30;43.90
15359;DHT22;7779;49.596;11.070;2022-09-01T15:54:11;24.30;43.90
15359;DHT22;7779;49.596;11.070;2022-09-01T15:56:40;24.30;43.90
15359;DHT22;7779;49.596;11.070;2022-09-01T15:59:08;24.30;43.90
15359;DHT22;7779;49.596;11.070;2022-09-01T16:01:38;24.20;43.80
15359;DHT22;7779;49.596;11.070;2022-09-01T16:04:08;24.20;43.80
15359;DHT22;7779;49.596;11.070;2022-09-01T16:06:37;24.10;43.80
15359;DHT22;7779;49.596;11.070;2022-09-01T16:09:05;24.00;44.40
15359;DHT22;7779;49.596;11.070;2022-09-01T16:11:31;24.00;43.80
15359;DHT22;7779;49.596;11.070;2022-09-01T16:13:57;23.90;43.80
15359;DHT22;7779;49.596;11.070;2022-09-01T16:19:18;23.80;43.50
15359;DHT22;7779;49.596;11.070;2022-09-01T16:21:53;23.80;43.90
15359;DHT22;7779;49.596;11.070;2022-09-01T16:24:23;23.70;43.80
15359;DHT22;7779;49.596;11.070;2022-09-01T16:26:50;23.70;44.00
15359;DHT22;7779;49.596;11.070;2022-09-01T16:29:25;23.60;43.90
15359;DHT22;7779;49.596;11.070;2022-09-01T16:31:58;23.60;44.00
15359;DHT22;7779;49.596;11.070;2022-09-01T16:34:24;23.50;44.10
15359;DHT22;7779;49.596;11.070;2022-09-01T16:37:07;23.50;44.20
15359;DHT22;7779;49.596;11.070;2022-09-01T16:43:46;23.40;44.30
15359;DHT22;7779;49.596;11.070;2022-09-01T16:46:29;23.30;44.40
15359;DHT22;7779;49.596;11.070;2022-09-01T16:52:01;23.20;44.70
15359;DHT22;7779;49.596;11.070;2022-09-01T16:54:51;23.20;44.90
15359;DHT22;7779;49.596;11.070;2022-09-01T17:00:39;23.10;44.90
15359;DHT22;7779;49.596;11.070;2022-09-01T17:03:18;23.10;45.00
15359;DHT22;7779;49.596;11.070;2022-09-01T17:06:11;23.00;45.00
15359;DHT22;7779;49.596;11.070;2022-09-01T17:08:50;23.00;45.30
15359;DHT22;7779;49.596;11.070;2022-09-01T17:11:33;22.90;45.40
15359;DHT22;7779;49.596;11.070;2022-09-01T17:14:15;22.80;45.70
15359;DHT22;7779;49.596;11.070;2022-09-01T17:17:01;22.80;45.70
15359;DHT22;7779;49.596;11.070;2022-09-01T17:19:33;22.70;45.80